createdAt,value
2023-03-24T00:00:24.314Z,11.76
2023-03-24T00:02:57.521Z,11.82
2023-03-24T00:05:29.250Z,11.80
2023-03-24T00:08:02.131Z,11.73
2023-03-24T00:10:35.394Z,11.53
2023-03-24T00:13:11.856Z,11.77
2023-03-24T00:15:42.593Z,11.71
2023-03-24T00:18:13.391Z,11.80
2023-03-24T00:20:44.772Z,11.53
2023-03-24T00:23:16.399Z,11.71
2023-03-24T00:25:50.310Z,11.69
2023-03-24T00:28:23.097Z,11.63
2023-03-24T00:30:55.318Z,11.65
2023-03-24T00:33:25.930Z,11.27
2023-03-24T00:35:58.099Z,11.26
2023-03-24T00:38:29.379Z,11.16
2023-03-24T00:41:01.374Z,11.22
2023-03-24T00:43:34.383Z,11.31
2023-03-24T00:46:11.666Z,11.32
2023-03-24T00:48:43.420Z,11.26
2023-03-24T00:51:14.011Z,11.08
2023-03-24T00:53:44.292Z,11.04
2023-03-24T00:56:15.928Z,10.97
2023-03-24T00:58:47.998Z,10.99
2023-03-24T01:01:18.100Z,10.90
2023-03-24T01:03:48.615Z,11.27
2023-03-24T01:06:19.092Z,11.21
2023-03-24T01:08:49.496Z,11.16
2023-03-24T01:11:20.276Z,11.31
2023-03-24T01:13:53.772Z,11.15
2023-03-24T01:16:26.191Z,11.10
2023-03-24T01:18:56.630Z,11.03
2023-03-24T01:21:27.253Z,10.93
2023-03-24T01:23:58.851Z,10.68
2023-03-24T01:26:28.820Z,10.81
2023-03-24T01:29:01.999Z,10.98
2023-03-24T01:31:31.849Z,10.98
2023-03-24T01:34:02.140Z,11.09
2023-03-24T01:36:32.587Z,10.83
2023-03-24T01:39:02.871Z,10.60
2023-03-24T01:41:37.036Z,10.74
2023-03-24T01:44:29.120Z,11.00
2023-03-24T01:47:00.039Z,11.02
2023-03-24T01:49:34.676Z,10.81
2023-03-24T01:52:06.848Z,10.65
2023-03-24T01:54:43.166Z,10.82
2023-03-24T01:57:16.740Z,10.70
2023-03-24T01:59:50.661Z,10.61
2023-03-24T02:02:22.845Z,10.54
2023-03-24T02:04:55.397Z,10.72
2023-03-24T02:07:34.254Z,10.74
2023-03-24T02:10:08.207Z,11.06
2023-03-24T02:12:38.632Z,10.79
2023-03-24T02:15:12.498Z,10.79
2023-03-24T02:18:01.522Z,10.50
2023-03-24T02:21:29.248Z,10.20
2023-03-24T02:24:47.619Z,10.36
2023-03-24T02:27:39.429Z,10.47
2023-03-24T02:30:32.509Z,10.37
2023-03-24T02:33:57.929Z,10.21
2023-03-24T02:37:00.464Z,10.52
2023-03-24T02:39:49.835Z,10.46
2023-03-24T02:42:28.800Z,10.56
2023-03-24T02:45:09.668Z,10.54
2023-03-24T02:47:46.335Z,10.58
2023-03-24T02:50:21.039Z,10.21
2023-03-24T02:52:55.340Z,10.20
2023-03-24T02:55:32.877Z,10.42
2023-03-24T02:58:08.013Z,10.49
2023-03-24T03:00:45.458Z,10.56
2023-03-24T03:03:22.810Z,10.44
2023-03-24T03:05:59.014Z,10.41
2023-03-24T03:08:32.929Z,10.36
2023-03-24T03:11:06.492Z,10.50
2023-03-24T03:13:38.769Z,10.61
2023-03-24T03:16:12.578Z,10.62
2023-03-24T03:18:45.330Z,10.44
2023-03-24T03:21:16.760Z,10.63
2023-03-24T03:23:54.475Z,10.34
2023-03-24T03:26:33.231Z,10.45
2023-03-24T03:29:07.984Z,10.59
2023-03-24T03:31:42.967Z,10.70
2023-03-24T03:34:18.668Z,10.64
2023-03-24T03:36:52.240Z,10.38
2023-03-24T03:39:24.539Z,10.44
2023-03-24T03:41:57.059Z,10.37
2023-03-24T03:44:27.757Z,10.44
2023-03-24T03:46:59.192Z,10.38
2023-03-24T03:49:30.033Z,10.61
2023-03-24T03:52:01.093Z,10.54
2023-03-24T03:54:34.530Z,10.64
2023-03-24T03:57:07.647Z,10.36
2023-03-24T03:59:41.181Z,10.32
2023-03-24T04:02:28.508Z,10.33
2023-03-24T04:05:16.274Z,10.55
2023-03-24T04:08:04.700Z,10.43
2023-03-24T04:10:46.820Z,10.68
2023-03-24T04:13:26.208Z,10.48
2023-03-24T04:15:59.790Z,10.33
2023-03-24T04:18:52.231Z,10.54
2023-03-24T04:21:48.895Z,10.42
2023-03-24T04:24:29.541Z,10.20
2023-03-24T04:27:03.517Z,10.40
2023-03-24T04:29:42.620Z,10.43
2023-03-24T04:32:20.042Z,10.42
2023-03-24T04:34:54.734Z,10.42
2023-03-24T04:37:27.902Z,10.53
2023-03-24T04:40:00.209Z,10.48
2023-03-24T04:42:33.058Z,10.47
2023-03-24T04:45:05.988Z,10.39
2023-03-24T04:47:43.638Z,10.55
2023-03-24T04:50:15.298Z,10.49
2023-03-24T04:52:45.818Z,10.40
2023-03-24T04:55:49.089Z,10.53
2023-03-24T04:58:19.488Z,10.38
2023-03-24T05:00:53.085Z,10.13
2023-03-24T05:03:23.938Z,10.13
2023-03-24T05:05:54.946Z,10.54
2023-03-24T05:08:25.623Z,10.41
2023-03-24T05:10:56.283Z,10.45
2023-03-24T05:13:27.066Z,10.47
2023-03-24T05:15:59.481Z,10.05
2023-03-24T05:18:29.266Z,10.05
2023-03-24T05:21:00.974Z,10.18
2023-03-24T05:23:31.661Z,10.03
2023-03-24T05:26:03.427Z,9.87
2023-03-24T05:28:33.570Z,10.26
2023-03-24T05:31:05.799Z,10.19
2023-03-24T05:33:36.525Z,10.30
2023-03-24T05:36:07.580Z,10.27
2023-03-24T05:38:37.611Z,10.16
2023-03-24T05:41:09.921Z,10.53
2023-03-24T05:43:40.340Z,10.49
2023-03-24T05:46:12.404Z,10.50
2023-03-24T05:48:42.741Z,10.60
2023-03-24T05:51:13.231Z,10.53
2023-03-24T05:53:43.482Z,10.63
2023-03-24T05:56:18.353Z,10.57
2023-03-24T05:58:48.836Z,10.68
2023-03-24T06:01:20.430Z,10.90
2023-03-24T06:03:50.946Z,11.08
2023-03-24T06:06:21.362Z,11.08
2023-03-24T06:08:55.115Z,11.11
2023-03-24T06:11:25.319Z,11.20
2023-03-24T06:13:59.785Z,11.22
2023-03-24T06:16:34.182Z,11.32
2023-03-24T06:19:05.097Z,11.28
2023-03-24T06:21:35.634Z,10.85
2023-03-24T06:24:06.347Z,10.93
2023-03-24T06:26:36.844Z,11.17
2023-03-24T06:29:06.552Z,10.94
2023-03-24T06:31:39.612Z,10.75
2023-03-24T06:34:09.443Z,10.92
2023-03-24T06:36:40.107Z,11.26
2023-03-24T06:39:10.645Z,11.11
2023-03-24T06:41:41.006Z,11.15
2023-03-24T06:44:11.085Z,11.28
2023-03-24T06:46:43.155Z,11.18
2023-03-24T06:49:13.862Z,11.31
2023-03-24T06:51:44.293Z,11.17
2023-03-24T06:54:14.968Z,11.42
2023-03-24T06:56:45.451Z,11.16
2023-03-24T06:59:18.352Z,11.24
2023-03-24T07:01:51.151Z,11.14
2023-03-24T07:04:21.453Z,11.09
2023-03-24T07:09:27.421Z,11.05
2023-03-24T07:11:58.048Z,11.24
2023-03-24T07:14:28.834Z,11.41
2023-03-24T07:17:02.756Z,11.55
2023-03-24T07:19:33.375Z,11.60
2023-03-24T07:22:04.008Z,11.65
2023-03-24T07:24:34.199Z,11.82
2023-03-24T07:27:04.981Z,11.97
2023-03-24T07:29:36.555Z,12.19
2023-03-24T07:32:09.761Z,12.31
2023-03-24T07:34:39.975Z,12.42
2023-03-24T07:37:10.603Z,12.47
2023-03-24T07:39:40.825Z,12.38
2023-03-24T07:42:12.992Z,12.52
2023-03-24T07:44:43.887Z,12.59
2023-03-24T07:47:15.949Z,12.68
2023-03-24T07:49:46.528Z,12.70
2023-03-24T07:52:17.291Z,12.79
2023-03-24T07:54:47.125Z,12.93
2023-03-24T07:57:17.835Z,13.04
2023-03-24T07:59:47.910Z,13.02
2023-03-24T08:02:22.292Z,13.06
2023-03-24T08:04:54.944Z,13.16
2023-03-24T08:07:26.136Z,13.20
2023-03-24T08:09:56.075Z,13.25
2023-03-24T08:12:26.890Z,13.27
2023-03-24T08:14:58.034Z,13.23
2023-03-24T08:17:29.864Z,13.29
2023-03-24T08:20:01.995Z,13.44
2023-03-24T08:22:34.279Z,13.45
2023-03-24T08:25:04.295Z,13.41
2023-03-24T08:27:34.834Z,13.45
2023-03-24T08:30:05.455Z,13.62
2023-03-24T08:32:38.827Z,13.67
2023-03-24T08:35:10.626Z,13.59
2023-03-24T08:37:41.073Z,13.69
2023-03-24T08:40:13.951Z,13.76
2023-03-24T08:42:44.537Z,13.95
2023-03-24T08:45:16.377Z,14.01
2023-03-24T08:47:49.471Z,14.15
2023-03-24T08:50:20.406Z,14.18
2023-03-24T08:52:50.765Z,14.25
2023-03-24T08:55:22.430Z,14.30
2023-03-24T08:57:52.637Z,14.34
2023-03-24T09:00:23.879Z,14.43
2023-03-24T09:02:57.952Z,14.61
2023-03-24T09:05:41.412Z,14.60
2023-03-24T09:08:14.498Z,14.65
2023-03-24T09:10:47.304Z,14.78
2023-03-24T09:13:17.924Z,14.85
2023-03-24T09:15:52.361Z,14.93
2023-03-24T09:18:25.089Z,14.98
2023-03-24T09:20:55.012Z,15.24
2023-03-24T09:23:25.638Z,15.28
2023-03-24T09:25:55.994Z,15.46
2023-03-24T09:28:27.007Z,15.56
2023-03-24T09:31:01.349Z,15.62
2023-03-24T09:33:35.575Z,15.73
2023-03-24T09:36:07.413Z,15.98
2023-03-24T09:38:38.345Z,16.07
2023-03-24T09:41:17.412Z,16.08
2023-03-24T09:43:51.994Z,16.31
2023-03-24T09:46:29.670Z,16.38
2023-03-24T09:49:02.111Z,16.35
2023-03-24T09:51:34.855Z,16.37
2023-03-24T09:54:14.161Z,16.44
2023-03-24T09:56:49.984Z,16.27
2023-03-24T09:59:24.050Z,16.47
2023-03-24T10:01:54.258Z,16.37
2023-03-24T10:04:29.849Z,16.57
2023-03-24T10:07:04.442Z,16.58
2023-03-24T10:09:37.072Z,16.69
2023-03-24T10:12:19.465Z,16.79
2023-03-24T10:15:00.307Z,17.03
2023-03-24T10:17:40.405Z,17.06
2023-03-24T10:20:26.699Z,17.06
2023-03-24T10:23:03.513Z,17.13
2023-03-24T10:25:46.788Z,17.20
2023-03-24T10:28:21.751Z,17.31
2023-03-24T10:30:54.004Z,17.39
2023-03-24T10:33:25.108Z,17.46
2023-03-24T10:36:07.092Z,17.51
2023-03-24T10:38:42.155Z,17.54
2023-03-24T10:41:18.562Z,17.85
2023-03-24T10:43:49.086Z,18.11
2023-03-24T10:46:23.176Z,18.13
2023-03-24T10:48:55.636Z,18.21
2023-03-24T10:51:31.050Z,18.68
2023-03-24T10:54:14.252Z,18.83
2023-03-24T10:56:47.113Z,18.76
2023-03-24T10:59:27.838Z,18.72
2023-03-24T11:02:18.755Z,18.60
2023-03-24T11:04:55.104Z,18.74
2023-03-24T11:07:31.829Z,18.57
2023-03-24T11:10:06.037Z,18.61
2023-03-24T11:12:38.483Z,18.76
2023-03-24T11:15:21.841Z,18.83
2023-03-24T11:17:57.827Z,18.79
2023-03-24T11:20:32.308Z,18.95
2023-03-24T11:23:06.232Z,19.20
2023-03-24T11:25:38.856Z,18.96
2023-03-24T11:28:10.575Z,18.86
2023-03-24T11:30:48.917Z,18.78
2023-03-24T11:33:36.107Z,18.79
2023-03-24T11:36:26.625Z,18.88
2023-03-24T11:39:03.891Z,19.38
2023-03-24T11:41:34.736Z,19.24
2023-03-24T11:44:22.059Z,19.39
2023-03-24T11:46:55.819Z,18.91
2023-03-24T11:49:29.827Z,18.90
2023-03-24T11:52:00.735Z,18.95
2023-03-24T11:54:36.714Z,19.20
2023-03-24T11:57:09.576Z,19.16
2023-03-24T11:59:44.116Z,19.05
2023-03-24T12:02:22.268Z,19.08
2023-03-24T12:05:12.813Z,19.12
2023-03-24T12:08:07.632Z,19.09
2023-03-24T12:10:57.923Z,19.25
2023-03-24T12:13:35.276Z,19.35
2023-03-24T12:16:40.176Z,19.88
2023-03-24T12:19:40.252Z,19.97
2023-03-24T12:22:19.698Z,19.46
2023-03-24T12:25:04.479Z,19.45
2023-03-24T12:27:44.276Z,19.34
2023-03-24T12:30:24.166Z,19.55
2023-03-24T12:33:01.926Z,19.69
2023-03-24T12:35:48.472Z,19.29
2023-03-24T12:38:35.548Z,19.40
2023-03-24T12:41:30.193Z,19.60
2023-03-24T12:44:20.937Z,19.62
2023-03-24T12:46:55.210Z,19.40
2023-03-24T12:49:39.820Z,19.39
2023-03-24T12:52:22.534Z,19.48
2023-03-24T12:54:57.412Z,19.48
2023-03-24T12:57:30.702Z,19.43
2023-03-24T13:00:08.463Z,19.30
2023-03-24T13:02:42.138Z,19.38
2023-03-24T13:05:21.909Z,19.68
2023-03-24T13:07:55.336Z,19.52
2023-03-24T13:10:29.022Z,19.50
2023-03-24T13:13:04.376Z,19.54
2023-03-24T13:15:43.991Z,19.58
2023-03-24T13:18:25.182Z,19.56
2023-03-24T13:20:58.216Z,19.43
2023-03-24T13:23:42.779Z,19.53
2023-03-24T13:26:24.912Z,19.41
2023-03-24T13:29:08.637Z,19.41
2023-03-24T13:31:43.791Z,19.42
2023-03-24T13:34:26.474Z,19.40
2023-03-24T13:37:01.432Z,19.42
2023-03-24T13:39:34.393Z,19.22
2023-03-24T13:42:05.286Z,19.27
2023-03-24T13:44:40.651Z,19.31
2023-03-24T13:47:18.540Z,19.56
2023-03-24T13:49:59.107Z,19.44
2023-03-24T13:52:35.500Z,19.45
2023-03-24T13:55:15.829Z,19.55
2023-03-24T13:58:00.923Z,19.79
2023-03-24T14:00:31.746Z,19.78
2023-03-24T14:03:21.416Z,19.81
2023-03-24T14:06:05.141Z,19.92
2023-03-24T14:08:44.637Z,19.92
2023-03-24T14:11:45.834Z,19.88
2023-03-24T14:14:24.651Z,19.99
2023-03-24T14:17:14.724Z,19.82
2023-03-24T14:20:10.368Z,20.30
2023-03-24T14:22:44.387Z,19.95
2023-03-24T14:25:26.359Z,19.91
2023-03-24T14:27:58.029Z,19.88
2023-03-24T14:30:33.563Z,19.95
2023-03-24T14:33:04.887Z,19.96
2023-03-24T14:35:42.220Z,19.91
2023-03-24T14:38:23.916Z,19.96
2023-03-24T14:40:58.150Z,19.97
2023-03-24T14:43:30.403Z,19.97
2023-03-24T14:46:03.391Z,20.03
2023-03-24T14:48:44.787Z,19.99
2023-03-24T14:51:41.726Z,19.90
2023-03-24T14:54:18.626Z,19.94
2023-03-24T14:56:56.834Z,19.90
2023-03-24T14:59:43.975Z,20.07
2023-03-24T15:02:30.258Z,19.83
2023-03-24T15:05:23.673Z,19.82
2023-03-24T15:08:18.256Z,19.91
2023-03-24T15:10:53.003Z,19.94
2023-03-24T15:13:38.736Z,19.72
2023-03-24T15:16:18.820Z,19.81
2023-03-24T15:19:00.729Z,19.82
2023-03-24T15:21:37.154Z,19.90
2023-03-24T15:24:33.250Z,19.94
2023-03-24T15:27:26.850Z,20.13
2023-03-24T15:30:00.395Z,20.37
2023-03-24T15:32:39.212Z,20.31
2023-03-24T15:35:13.645Z,20.17
2023-03-24T15:37:48.517Z,20.47
2023-03-24T15:40:36.422Z,20.31
2023-03-24T15:43:10.205Z,20.26
2023-03-24T15:45:52.998Z,20.14
2023-03-24T15:48:32.878Z,19.92
2023-03-24T15:51:04.406Z,20.02
2023-03-24T15:53:44.795Z,20.22
2023-03-24T15:56:28.589Z,20.03
2023-03-24T15:59:11.319Z,19.88
2023-03-24T16:01:45.122Z,19.96
2023-03-24T16:04:19.763Z,19.98
2023-03-24T16:06:54.191Z,19.82
2023-03-24T16:09:27.968Z,19.83
2023-03-24T16:12:00.454Z,19.85
2023-03-24T16:14:33.609Z,19.91
2023-03-24T16:17:05.270Z,19.43
2023-03-24T16:19:36.640Z,19.54
2023-03-24T16:22:12.659Z,19.58
2023-03-24T16:24:43.354Z,19.44
2023-03-24T16:27:16.359Z,19.39
2023-03-24T16:29:47.343Z,19.20
2023-03-24T16:32:19.319Z,19.14
2023-03-24T16:34:51.669Z,19.00
2023-03-24T16:37:22.521Z,18.89
2023-03-24T16:39:53.681Z,18.83
2023-03-24T16:42:27.647Z,18.78
2023-03-24T16:44:58.846Z,18.75
2023-03-24T16:47:30.542Z,18.64
2023-03-24T16:50:01.091Z,18.61
2023-03-24T16:52:33.391Z,18.57
2023-03-24T16:55:05.107Z,18.46
2023-03-24T16:57:38.512Z,18.34
2023-03-24T17:00:12.296Z,18.45
2023-03-24T17:02:46.455Z,18.32
2023-03-24T17:05:22.675Z,18.20
2023-03-24T17:07:54.413Z,18.13
2023-03-24T17:10:25.406Z,18.09
2023-03-24T17:12:58.426Z,18.30
2023-03-24T17:15:29.983Z,18.09
2023-03-24T17:18:00.369Z,17.91
2023-03-24T17:20:30.475Z,17.88
2023-03-24T17:23:01.952Z,17.80
2023-03-24T17:25:32.101Z,17.71
2023-03-24T17:28:05.486Z,17.68
2023-03-24T17:30:35.558Z,17.68
2023-03-24T17:33:06.314Z,17.50
2023-03-24T17:35:36.514Z,17.43
2023-03-24T17:38:06.894Z,17.30
2023-03-24T17:40:37.274Z,17.24
2023-03-24T17:43:09.774Z,17.21
2023-03-24T17:45:41.597Z,17.16
2023-03-24T17:48:11.744Z,17.12
2023-03-24T17:50:42.009Z,17.08
2023-03-24T17:53:14.070Z,16.93
2023-03-24T17:55:44.776Z,17.02
2023-03-24T17:58:17.533Z,17.23
2023-03-24T18:00:48.515Z,17.16
2023-03-24T18:03:19.494Z,17.40
2023-03-24T18:05:50.390Z,17.15
2023-03-24T18:08:21.219Z,17.05
2023-03-24T18:10:52.556Z,17.36
2023-03-24T18:13:26.966Z,17.60
2023-03-24T18:15:57.121Z,17.65
2023-03-24T18:18:29.305Z,17.63
2023-03-24T18:20:59.913Z,18.04
2023-03-24T18:23:32.839Z,17.44
2023-03-24T18:26:05.330Z,17.41
2023-03-24T18:28:38.460Z,17.45
2023-03-24T18:31:12.943Z,17.21
2023-03-24T18:33:46.337Z,17.22
2023-03-24T18:36:21.468Z,17.11
2023-03-24T18:38:53.224Z,17.40
2023-03-24T18:41:26.979Z,17.54
2023-03-24T18:44:01.395Z,17.31
2023-03-24T18:46:33.768Z,17.05
2023-03-24T18:49:05.524Z,17.00
2023-03-24T18:51:36.224Z,17.21
2023-03-24T18:54:08.173Z,17.02
2023-03-24T18:56:39.503Z,17.17
2023-03-24T18:59:16.639Z,17.02
2023-03-24T19:01:47.718Z,16.85
2023-03-24T19:04:20.465Z,16.80
2023-03-24T19:06:51.907Z,16.65
2023-03-24T19:09:24.118Z,16.58
2023-03-24T19:11:58.377Z,16.57
2023-03-24T19:14:34.640Z,16.53
2023-03-24T19:17:07.537Z,16.46
2023-03-24T19:19:38.451Z,16.45
2023-03-24T19:22:09.680Z,16.44
2023-03-24T19:24:40.625Z,16.41
2023-03-24T19:27:13.844Z,16.43
2023-03-24T19:29:47.279Z,16.33
2023-03-24T19:32:17.970Z,16.29
2023-03-24T19:34:50.235Z,16.07
2023-03-24T19:37:22.441Z,16.10
2023-03-24T19:39:53.651Z,15.98
2023-03-24T19:42:26.916Z,15.97
2023-03-24T19:44:59.229Z,15.94
2023-03-24T19:47:29.528Z,15.79
2023-03-24T19:50:01.204Z,15.75
2023-03-24T19:52:31.888Z,15.73
2023-03-24T19:55:03.786Z,15.68
2023-03-24T19:57:34.007Z,15.50
2023-03-24T20:00:09.950Z,15.38
2023-03-24T20:02:41.466Z,15.41
2023-03-24T20:05:12.402Z,15.40
2023-03-24T20:07:42.837Z,15.34
2023-03-24T20:10:14.093Z,15.37
2023-03-24T20:12:43.727Z,15.39
2023-03-24T20:15:16.062Z,15.33
2023-03-24T20:17:46.082Z,15.23
2023-03-24T20:20:17.095Z,15.29
2023-03-24T20:22:49.247Z,15.26
2023-03-24T20:25:21.484Z,15.23
2023-03-24T20:27:51.885Z,15.22
2023-03-24T20:30:24.440Z,15.19
2023-03-24T20:32:58.656Z,15.15
2023-03-24T20:35:30.499Z,15.21
2023-03-24T20:38:01.369Z,15.14
2023-03-24T20:40:31.751Z,15.11
2023-03-24T20:43:01.773Z,15.17
2023-03-24T20:45:33.584Z,15.14
2023-03-24T20:48:03.905Z,15.08
2023-03-24T20:50:35.077Z,15.11
2023-03-24T20:53:05.953Z,15.15
2023-03-24T20:55:36.703Z,15.13
2023-03-24T20:58:08.761Z,15.15
2023-03-24T21:00:46.431Z,15.12
2023-03-24T21:03:17.004Z,15.13
2023-03-24T21:05:47.791Z,15.14
2023-03-24T21:08:19.420Z,15.19
2023-03-24T21:10:50.130Z,15.10
2023-03-24T21:13:21.870Z,15.05
2023-03-24T21:15:54.362Z,15.20
2023-03-24T21:18:24.565Z,15.07
2023-03-24T21:20:56.391Z,15.09
2023-03-24T21:23:27.307Z,15.09
2023-03-24T21:25:57.957Z,15.04
2023-03-24T21:28:31.293Z,15.01
2023-03-24T21:31:10.065Z,14.94
2023-03-24T21:33:41.017Z,15.00
2023-03-24T21:36:13.547Z,15.05
2023-03-24T21:38:44.510Z,15.11
2023-03-24T21:41:15.206Z,15.16
2023-03-24T21:43:47.388Z,15.08
2023-03-24T21:46:23.443Z,15.04
2023-03-24T21:48:59.695Z,14.97
2023-03-24T21:51:34.979Z,14.96
2023-03-24T21:54:08.236Z,14.94
2023-03-24T21:56:40.252Z,14.99
2023-03-24T21:59:12.486Z,14.92
2023-03-24T22:01:44.023Z,14.92
2023-03-24T22:04:16.278Z,15.35
2023-03-24T22:06:48.226Z,15.46
2023-03-24T22:09:19.510Z,15.73
2023-03-24T22:11:58.904Z,15.39
2023-03-24T22:14:30.349Z,15.10
2023-03-24T22:17:03.714Z,15.10
2023-03-24T22:19:35.201Z,14.83
2023-03-24T22:22:12.165Z,15.10
2023-03-24T22:24:42.918Z,15.05
2023-03-24T22:27:14.004Z,14.84
2023-03-24T22:29:44.123Z,14.37
2023-03-24T22:32:21.725Z,14.55
2023-03-24T22:34:53.387Z,14.40
2023-03-24T22:37:25.055Z,14.48
2023-03-24T22:39:55.963Z,14.55
2023-03-24T22:42:27.649Z,14.05
2023-03-24T22:45:01.582Z,14.30
2023-03-24T22:47:33.943Z,14.52
2023-03-24T22:50:05.799Z,14.31
2023-03-24T22:52:36.753Z,14.34
2023-03-24T22:55:10.761Z,13.98
2023-03-24T22:57:41.313Z,13.63
2023-03-24T23:00:20.736Z,13.55
2023-03-24T23:02:57.784Z,13.92
2023-03-24T23:05:29.630Z,13.98
2023-03-24T23:08:02.619Z,13.84
2023-03-24T23:10:33.035Z,13.82
2023-03-24T23:13:04.875Z,13.78
2023-03-24T23:15:35.246Z,13.51
2023-03-24T23:18:08.314Z,13.36
2023-03-24T23:20:41.501Z,13.43
2023-03-24T23:23:12.597Z,13.25
2023-03-24T23:25:44.752Z,13.29
2023-03-24T23:28:16.545Z,13.41
2023-03-24T23:30:46.743Z,13.66
2023-03-24T23:33:23.148Z,13.60
2023-03-24T23:35:59.838Z,13.39
2023-03-24T23:38:32.429Z,13.24
2023-03-24T23:41:04.573Z,13.71
2023-03-24T23:43:36.330Z,13.64
2023-03-24T23:46:07.208Z,13.43
2023-03-24T23:48:39.799Z,13.25
2023-03-24T23:51:11.778Z,13.03
2023-03-24T23:53:43.782Z,13.06
2023-03-24T23:56:16.056Z,12.97
2023-03-24T23:58:46.126Z,12.86
